Time,TemperatureF,DewpointF,PressureIn,WindDirection,WindDirectionDegrees,WindSpeedMPH,WindSpeedGustMPH,Humidity,HourlyPrecipIn,Conditions,Clouds,dailyrainin,SolarRadiationWatts/m^2,SoftwareType,DateUTC
2013-07-12 00:01:00,62.0,58.7,29.63,West,262,0.0,0.0,89,0.00,,,0.00,0,WeatherCatV1.02B3,2013-07-12 07:01:00,
2013-07-12 00:06:00,62.0,59.0,29.63,West,262,0.0,0.0,90,0.00,,,0.00,0,WeatherCatV1.02B3,2013-07-12 07:06:00,
2013-07-12 00:11:00,61.7,58.7,29.63,West,262,0.0,0.0,90,0.00,,,0.00,0,WeatherCatV1.02B3,2013-07-12 07:11:00,
2013-07-12 00:16:00,62.2,59.2,29.63,West,262,0.0,0.0,90,0.00,,,0.00,0,WeatherCatV1.02B3,2013-07-12 07:16:00,
2013-07-12 00:21:00,61.8,58.8,29.63,West,262,0.0,0.0,90,0.00,,,0.00,0,WeatherCatV1.02B3,2013-07-12 07:21:00,
2013-07-12 00:26:00,61.6,58.6,29.63,West,262,0.0,0.0,90,0.00,,,0.00,0,WeatherCatV1.02B3,2013-07-12 07:26:00,
2013-07-12 00:31:00,61.5,58.5,29.63,West,262,0.0,0.0,90,0.00,,,0.00,0,WeatherCatV1.02B3,2013-07-12 07:31:00,
2013-07-12 00:36:00,61.6,58.6,29.63,West,262,0.0,0.0,90,0.00,,,0.00,0,WeatherCatV1.02B3,2013-07-12 07:36:00,
2013-07-12 00:41:00,61.5,58.5,29.63,West,262,0.0,0.0,90,0.00,,,0.00,0,WeatherCatV1.02B3,2013-07-12 07:41:00,
2013-07-12 00:46:00,61.2,58.2,29.63,West,262,0.0,0.0,90,0.00,,,0.00,0,WeatherCatV1.02B3,2013-07-12 07:46:00,
2013-07-12 00:51:00,61.1,58.4,29.63,West,262,0.0,0.0,91,0.00,,,0.00,0,WeatherCatV1.02B3,2013-07-12 07:51:00,
2013-07-12 00:56:00,61.1,58.1,29.63,West,262,0.0,0.0,90,0.00,,,0.00,0,WeatherCatV1.02B3,2013-07-12 07:56:00,
2013-07-12 01:01:00,61.0,58.3,29.63,West,262,0.0,0.0,91,0.00,,,0.00,0,WeatherCatV1.02B3,2013-07-12 08:01:00,
2013-07-12 01:06:00,60.8,58.2,29.63,West,262,0.0,0.0,91,0.00,,,0.00,0,WeatherCatV1.02B3,2013-07-12 08:06:00,
2013-07-12 01:11:00,61.0,58.3,29.63,West,262,0.0,0.0,91,0.00,,,0.00,0,WeatherCatV1.02B3,2013-07-12 08:11:00,
2013-07-12 01:16:00,61.1,58.4,29.63,West,262,0.0,0.0,91,0.00,,,0.00,0,WeatherCatV1.02B3,2013-07-12 08:16:00,
2013-07-12 01:21:00,61.1,58.4,29.63,West,262,0.0,0.0,91,0.00,,,0.00,0,WeatherCatV1.02B3,2013-07-12 08:21:00,
2013-07-12 01:26:00,60.8,58.2,29.63,West,262,0.0,0.0,91,0.00,,,0.00,0,WeatherCatV1.02B3,2013-07-12 08:26:00,
2013-07-12 01:31:00,60.6,58.0,29.63,West,262,0.0,0.0,91,0.00,,,0.00,0,WeatherCatV1.02B3,2013-07-12 08:31:00,
2013-07-12 01:36:00,60.3,57.4,29.63,West,262,0.0,0.0,90,0.00,,,0.00,0,WeatherCatV1.02B3,2013-07-12 08:36:00,
2013-07-12 01:41:00,59.7,56.8,29.63,West,262,0.0,0.0,90,0.00,,,0.00,0,WeatherCatV1.02B3,2013-07-12 08:41:00,
2013-07-12 01:46:00,59.3,56.7,29.63,West,262,0.0,0.0,91,0.00,,,0.00,0,WeatherCatV1.02B3,2013-07-12 08:46:00,
2013-07-12 01:51:00,59.3,57.0,29.63,West,262,0.0,1.0,92,0.00,,,0.00,0,WeatherCatV1.02B3,2013-07-12 08:51:00,
2013-07-12 01:56:00,59.6,57.3,29.63,West,262,0.0,0.0,92,0.00,,,0.00,0,WeatherCatV1.02B3,2013-07-12 08:56:00,
2013-07-12 02:01:00,59.8,57.5,29.63,West,262,0.0,0.0,92,0.00,,,0.00,0,WeatherCatV1.02B3,2013-07-12 09:01:00,
2013-07-12 02:06:00,59.8,57.5,29.63,West,262,0.0,0.0,92,0.00,,,0.00,0,WeatherCatV1.02B3,2013-07-12 09:06:00,
2013-07-12 02:11:00,59.1,56.5,29.63,West,262,0.0,0.0,91,0.00,,,0.00,0,WeatherCatV1.02B3,2013-07-12 09:11:00,
2013-07-12 02:16:00,59.4,57.1,29.63,West,262,0.0,0.0,92,0.00,,,0.00,0,WeatherCatV1.02B3,2013-07-12 09:16:00,
2013-07-12 02:21:00,59.4,57.1,29.63,West,262,0.0,0.0,92,0.00,,,0.00,0,WeatherCatV1.02B3,2013-07-12 09:21:00,
2013-07-12 02:26:00,59.4,57.1,29.63,West,262,0.0,0.0,92,0.00,,,0.00,0,WeatherCatV1.02B3,2013-07-12 09:26:00,
2013-07-12 02:31:00,59.4,57.1,29.63,West,262,0.0,0.0,92,0.00,,,0.00,0,WeatherCatV1.02B3,2013-07-12 09:31:00,
2013-07-12 02:36:00,59.2,56.9,29.63,West,262,0.0,0.0,92,0.00,,,0.00,0,WeatherCatV1.02B3,2013-07-12 09:36:00,
2013-07-12 02:41:00,59.0,56.7,29.63,West,262,0.0,0.0,92,0.00,,,0.00,0,WeatherCatV1.02B3,2013-07-12 09:41:00,
2013-07-12 02:46:00,59.0,56.7,29.63,West,262,0.0,0.0,92,0.00,,,0.00,0,WeatherCatV1.02B3,2013-07-12 09:46:00,
2013-07-12 02:51:00,59.1,57.1,29.63,West,262,0.0,0.0,93,0.00,,,0.00,0,WeatherCatV1.02B3,2013-07-12 09:51:00,
2013-07-12 02:56:00,59.0,56.7,29.63,West,262,0.0,0.0,92,0.00,,,0.00,0,WeatherCatV1.02B3,2013-07-12 09:56:00,
2013-07-12 03:01:00,58.7,56.4,29.63,West,262,0.0,0.0,92,0.00,,,0.00,0,WeatherCatV1.02B3,2013-07-12 10:01:00,
2013-07-12 03:06:00,59.1,57.1,29.63,NW,311,0.0,1.0,93,0.00,,,0.00,0,WeatherCatV1.02B3,2013-07-12 10:06:00,
2013-07-12 03:11:00,59.2,57.2,29.63,NW,311,0.0,0.0,93,0.00,,,0.00,0,WeatherCatV1.02B3,2013-07-12 10:11:00,
2013-07-12 03:16:00,58.9,56.6,29.63,NW,311,0.0,0.0,92,0.00,,,0.00,0,WeatherCatV1.02B3,2013-07-12 10:16:00,
2013-07-12 03:21:00,58.6,56.3,29.63,NW,311,0.0,0.0,92,0.00,,,0.00,0,WeatherCatV1.02B3,2013-07-12 10:21:00,
2013-07-12 03:26:00,58.7,56.4,29.63,NW,311,0.0,0.0,92,0.00,,,0.00,0,WeatherCatV1.02B3,2013-07-12 10:26:00,
2013-07-12 03:31:00,58.9,56.9,29.63,NW,311,0.0,0.0,93,0.00,,,0.00,0,WeatherCatV1.02B3,2013-07-12 10:31:00,
2013-07-12 03:36:00,59.0,57.0,29.63,NW,311,0.0,0.0,93,0.00,,,0.00,0,WeatherCatV1.02B3,2013-07-12 10:36:00,
2013-07-12 03:41:00,58.9,56.9,29.63,NW,311,0.0,0.0,93,0.00,,,0.00,0,WeatherCatV1.02B3,2013-07-12 10:41:00,
2013-07-12 03:46:00,58.6,56.6,29.63,NW,311,0.0,0.0,93,0.00,,,0.00,0,WeatherCatV1.02B3,2013-07-12 10:46:00,
2013-07-12 03:51:00,58.7,56.7,29.63,NW,311,0.0,0.0,93,0.00,,,0.00,0,WeatherCatV1.02B3,2013-07-12 10:51:00,
2013-07-12 03:56:00,58.6,56.6,29.63,NW,311,0.0,0.0,93,0.00,,,0.00,0,WeatherCatV1.02B3,2013-07-12 10:56:00,
2013-07-12 04:01:00,58.0,55.7,29.63,NW,311,0.0,1.0,92,0.00,,,0.00,0,WeatherCatV1.02B3,2013-07-12 11:01:00,
2013-07-12 04:06:00,57.6,55.3,29.63,NW,311,0.0,0.0,92,0.00,,,0.00,0,WeatherCatV1.02B3,2013-07-12 11:06:00,
2013-07-12 04:11:00,57.9,55.9,29.63,NW,311,0.0,0.0,93,0.00,,,0.00,0,WeatherCatV1.02B3,2013-07-12 11:11:00,
2013-07-12 04:16:00,57.7,55.7,29.63,NW,311,0.0,0.0,93,0.00,,,0.00,0,WeatherCatV1.02B3,2013-07-12 11:16:00,
2013-07-12 04:21:00,57.6,55.6,29.63,NW,311,0.0,0.0,93,0.00,,,0.00,0,WeatherCatV1.02B3,2013-07-12 11:21:00,
2013-07-12 04:26:00,57.6,55.6,29.63,NW,311,0.0,0.0,93,0.00,,,0.00,0,WeatherCatV1.02B3,2013-07-12 11:26:00,
2013-07-12 04:31:00,57.6,55.6,29.63,NW,311,0.0,0.0,93,0.00,,,0.00,0,WeatherCatV1.02B3,2013-07-12 11:31:00,
2013-07-12 04:36:00,57.5,55.5,29.63,NW,311,0.0,0.0,93,0.00,,,0.00,0,WeatherCatV1.02B3,2013-07-12 11:36:00,
2013-07-12 04:41:00,57.7,55.7,29.63,NW,311,0.0,0.0,93,0.00,,,0.00,0,WeatherCatV1.02B3,2013-07-12 11:41:00,
2013-07-12 04:46:00,57.4,55.4,29.63,NW,311,0.0,0.0,93,0.00,,,0.00,0,WeatherCatV1.02B3,2013-07-12 11:46:00,
2013-07-12 04:51:00,57.3,55.3,29.63,NW,311,0.0,0.0,93,0.00,,,0.00,0,WeatherCatV1.02B3,2013-07-12 11:51:00,
2013-07-12 04:56:00,57.3,55.3,29.63,NW,311,0.0,0.0,93,0.00,,,0.00,0,WeatherCatV1.02B3,2013-07-12 11:56:00,
2013-07-12 05:01:00,57.3,55.3,29.63,NW,311,0.0,0.0,93,0.00,,,0.00,0,WeatherCatV1.02B3,2013-07-12 12:01:00,
2013-07-12 05:06:00,57.0,55.0,29.63,NW,311,0.0,0.0,93,0.00,,,0.00,0,WeatherCatV1.02B3,2013-07-12 12:06:00,
2013-07-12 05:11:00,57.5,55.8,29.63,NW,311,0.0,0.0,94,0.00,,,0.00,0,WeatherCatV1.02B3,2013-07-12 12:11:00,
2013-07-12 05:16:00,57.3,55.6,29.63,NW,311,0.0,0.0,94,0.00,,,0.00,0,WeatherCatV1.02B3,2013-07-12 12:16:00,
2013-07-12 05:21:00,57.3,55.6,29.63,NW,311,0.0,0.0,94,0.00,,,0.00,0,WeatherCatV1.02B3,2013-07-12 12:21:00,
2013-07-12 05:26:00,56.7,54.7,29.63,NW,311,0.0,1.0,93,0.00,,,0.00,0,WeatherCatV1.02B3,2013-07-12 12:26:00,
2013-07-12 05:31:00,56.1,54.1,29.63,NW,311,0.0,0.0,93,0.00,,,0.00,0,WeatherCatV1.02B3,2013-07-12 12:31:00,
2013-07-12 05:36:00,56.4,54.7,29.63,NW,311,0.0,0.0,94,0.00,,,0.00,0,WeatherCatV1.02B3,2013-07-12 12:36:00,
2013-07-12 05:41:00,56.6,54.9,29.63,NW,311,0.0,0.0,94,0.00,,,0.00,0,WeatherCatV1.02B3,2013-07-12 12:41:00,
2013-07-12 05:46:00,56.8,55.1,29.63,NW,311,0.0,0.0,94,0.00,,,0.00,0,WeatherCatV1.02B3,2013-07-12 12:46:00,
2013-07-12 05:51:00,56.6,54.9,29.63,NW,311,0.0,0.0,94,0.00,,,0.00,0,WeatherCatV1.02B3,2013-07-12 12:51:00,
2013-07-12 05:56:00,56.4,54.7,29.63,NW,311,0.0,0.0,94,0.00,,,0.00,0,WeatherCatV1.02B3,2013-07-12 12:56:00,
2013-07-12 06:01:00,56.4,54.7,29.63,NW,311,0.0,0.0,94,0.00,,,0.00,5,WeatherCatV1.02B3,2013-07-12 13:01:00,
2013-07-12 06:06:00,56.5,54.8,29.63,NW,311,0.0,0.0,94,0.00,,,0.00,5,WeatherCatV1.02B3,2013-07-12 13:06:00,
2013-07-12 06:11:00,56.6,54.9,29.63,NW,311,0.0,0.0,94,0.00,,,0.00,7,WeatherCatV1.02B3,2013-07-12 13:11:00,
2013-07-12 06:16:00,56.4,54.7,29.63,NW,311,0.0,0.0,94,0.00,,,0.00,9,WeatherCatV1.02B3,2013-07-12 13:16:00,
2013-07-12 06:21:00,56.2,54.5,29.63,NW,311,0.0,0.0,94,0.00,,,0.00,11,WeatherCatV1.02B3,2013-07-12 13:21:00,
2013-07-12 06:26:00,56.5,54.8,29.63,NW,311,0.0,0.0,94,0.00,,,0.00,12,WeatherCatV1.02B3,2013-07-12 13:26:00,
2013-07-12 06:31:00,56.5,54.8,29.63,NW,311,0.0,0.0,94,0.00,,,0.00,14,WeatherCatV1.02B3,2013-07-12 13:31:00,
2013-07-12 06:36:00,56.9,55.2,29.63,NW,311,0.0,0.0,94,0.00,,,0.00,18,WeatherCatV1.02B3,2013-07-12 13:36:00,
2013-07-12 06:41:00,56.6,54.9,29.63,NW,311,0.0,0.0,94,0.00,,,0.00,25,WeatherCatV1.02B3,2013-07-12 13:41:00,
2013-07-12 06:46:00,56.6,54.9,29.63,NW,311,0.0,0.0,94,0.00,,,0.00,30,WeatherCatV1.02B3,2013-07-12 13:46:00,
2013-07-12 06:51:00,56.9,55.5,29.63,NW,311,0.0,0.0,95,0.00,,,0.00,39,WeatherCatV1.02B3,2013-07-12 13:51:00,
2013-07-12 06:56:00,57.4,55.7,29.63,NW,311,0.0,0.0,94,0.00,,,0.00,40,WeatherCatV1.02B3,2013-07-12 13:56:00,
2013-07-12 07:01:00,57.5,55.8,29.63,NW,311,0.0,0.0,94,0.00,,,0.00,53,WeatherCatV1.02B3,2013-07-12 14:01:00,
2013-07-12 07:06:00,58.0,56.3,29.63,NW,311,0.0,0.0,94,0.00,,,0.00,56,WeatherCatV1.02B3,2013-07-12 14:06:00,
2013-07-12 07:11:00,58.3,56.6,29.63,NW,311,0.0,0.0,94,0.00,,,0.00,65,WeatherCatV1.02B3,2013-07-12 14:11:00,
2013-07-12 07:16:00,58.7,57.0,29.63,NW,311,0.0,0.0,94,0.00,,,0.00,65,WeatherCatV1.02B3,2013-07-12 14:16:00,
2013-07-12 07:21:00,59.0,57.0,29.63,NW,311,0.0,0.0,93,0.00,,,0.00,28,WeatherCatV1.02B3,2013-07-12 14:21:00,
2013-07-12 07:26:00,59.2,57.2,29.63,NW,311,0.0,0.0,93,0.00,,,0.00,60,WeatherCatV1.02B3,2013-07-12 14:26:00,
2013-07-12 07:31:00,60.0,58.0,29.63,NW,311,0.0,0.0,93,0.00,,,0.00,53,WeatherCatV1.02B3,2013-07-12 14:31:00,
2013-07-12 07:36:00,60.5,58.5,29.63,NW,311,0.0,0.0,93,0.00,,,0.00,65,WeatherCatV1.02B3,2013-07-12 14:36:00,
2013-07-12 07:41:00,60.9,58.3,29.63,NW,311,0.0,0.0,91,0.00,,,0.00,58,WeatherCatV1.02B3,2013-07-12 14:41:00,
2013-07-12 07:46:00,61.8,59.1,29.63,NW,311,0.0,0.0,91,0.00,,,0.00,127,WeatherCatV1.02B3,2013-07-12 14:46:00,
2013-07-12 07:51:00,62.7,59.7,29.63,NW,304,0.0,2.0,90,0.00,,,0.00,174,WeatherCatV1.02B3,2013-07-12 14:51:00,
2013-07-12 07:56:00,63.1,60.1,29.63,NW,304,0.0,0.0,90,0.00,,,0.00,209,WeatherCatV1.02B3,2013-07-12 14:56:00,
2013-07-12 08:01:00,64.3,61.0,29.63,WSW,258,0.0,2.0,89,0.00,,,0.00,267,WeatherCatV1.02B3,2013-07-12 15:01:00,
2013-07-12 08:06:00,65.0,61.0,29.63,WSW,254,0.0,3.0,87,0.00,,,0.00,287,WeatherCatV1.02B3,2013-07-12 15:06:00,
2013-07-12 08:11:00,65.6,61.6,29.63,WSW,255,0.0,1.0,87,0.00,,,0.00,302,WeatherCatV1.02B3,2013-07-12 15:11:00,
2013-07-12 08:16:00,66.5,61.8,29.63,WSW,256,1.0,1.0,85,0.00,,,0.00,304,WeatherCatV1.02B3,2013-07-12 15:16:00,
2013-07-12 08:21:00,67.4,62.4,29.63,West,273,2.0,2.0,84,0.00,,,0.00,352,WeatherCatV1.02B3,2013-07-12 15:21:00,
2013-07-12 08:26:00,67.9,62.5,29.63,SW,223,0.0,1.0,83,0.00,,,0.00,373,WeatherCatV1.02B3,2013-07-12 15:26:00,
2013-07-12 08:31:00,68.8,62.7,29.63,WSW,253,1.0,2.0,81,0.00,,,0.00,397,WeatherCatV1.02B3,2013-07-12 15:31:00,
2013-07-12 08:36:00,69.1,62.7,29.63,SSW,213,0.0,1.0,80,0.00,,,0.00,411,WeatherCatV1.02B3,2013-07-12 15:36:00,
2013-07-12 08:41:00,70.2,63.0,29.63,SW,215,0.0,1.0,78,0.00,,,0.00,436,WeatherCatV1.02B3,2013-07-12 15:41:00,
2013-07-12 08:46:00,70.8,62.8,29.63,WSW,242,1.0,3.0,76,0.00,,,0.00,452,WeatherCatV1.02B3,2013-07-12 15:46:00,
2013-07-12 08:51:00,71.6,62.9,29.63,South,188,2.0,2.0,74,0.00,,,0.00,438,WeatherCatV1.02B3,2013-07-12 15:51:00,
2013-07-12 08:56:00,72.0,62.5,29.63,WSW,252,0.0,1.0,72,0.00,,,0.00,410,WeatherCatV1.02B3,2013-07-12 15:56:00,
2013-07-12 09:01:00,73.0,64.2,29.63,SSE,150,2.0,3.0,74,0.00,,,0.00,478,WeatherCatV1.02B3,2013-07-12 16:01:00,
2013-07-12 09:06:00,73.3,63.7,29.63,NE,34,0.0,0.0,72,0.00,,,0.00,508,WeatherCatV1.02B3,2013-07-12 16:06:00,
2013-07-12 09:11:00,73.6,64.0,29.63,SSE,166,0.0,2.0,72,0.00,,,0.00,367,WeatherCatV1.02B3,2013-07-12 16:11:00,
2013-07-12 09:16:00,74.3,64.7,29.63,West,268,1.0,4.0,72,0.00,,,0.00,538,WeatherCatV1.02B3,2013-07-12 16:16:00,
2013-07-12 09:21:00,74.6,64.6,29.63,West,267,1.0,2.0,71,0.00,,,0.00,547,WeatherCatV1.02B3,2013-07-12 16:21:00,
2013-07-12 09:26:00,75.1,64.6,29.63,ESE,104,1.0,3.0,70,0.00,,,0.00,564,WeatherCatV1.02B3,2013-07-12 16:26:00,
2013-07-12 09:31:00,75.6,64.7,29.63,SW,218,0.0,1.0,69,0.00,,,0.00,580,WeatherCatV1.02B3,2013-07-12 16:31:00,
2013-07-12 09:36:00,76.6,64.4,29.63,NW,315,1.0,3.0,66,0.00,,,0.00,596,WeatherCatV1.02B3,2013-07-12 16:36:00,
2013-07-12 09:41:00,77.0,65.2,29.63,SW,229,2.0,2.0,67,0.00,,,0.00,612,WeatherCatV1.02B3,2013-07-12 16:41:00,
2013-07-12 09:46:00,76.8,64.6,29.63,West,270,1.0,2.0,66,0.00,,,0.00,624,WeatherCatV1.02B3,2013-07-12 16:46:00,
2013-07-12 09:51:00,78.2,64.6,29.63,NNE,28,0.0,4.0,63,0.00,,,0.00,636,WeatherCatV1.02B3,2013-07-12 16:51:00,
2013-07-12 09:56:00,78.7,65.0,29.63,West,265,5.0,5.0,63,0.00,,,0.00,645,WeatherCatV1.02B3,2013-07-12 16:56:00,
2013-07-12 10:02:00,78.1,64.5,29.63,West,266,4.0,6.0,63,0.00,,,0.00,661,WeatherCatV1.02B3,2013-07-12 17:02:00,
2013-07-12 10:07:00,78.5,64.8,29.63,WSW,250,4.0,6.0,63,0.00,,,0.00,675,WeatherCatV1.02B3,2013-07-12 17:07:00,
2013-07-12 10:12:00,78.5,65.3,29.63,WSW,251,3.0,5.0,64,0.00,,,0.00,687,WeatherCatV1.02B3,2013-07-12 17:12:00,
2013-07-12 10:17:00,79.0,64.8,29.63,West,265,3.0,7.0,62,0.00,,,0.00,700,WeatherCatV1.02B3,2013-07-12 17:17:00,
2013-07-12 10:22:00,80.1,64.5,29.63,West,271,2.0,4.0,59,0.00,,,0.00,710,WeatherCatV1.02B3,2013-07-12 17:22:00,
2013-07-12 10:27:00,81.4,65.2,29.63,West,277,2.0,3.0,58,0.00,,,0.00,722,WeatherCatV1.02B3,2013-07-12 17:27:00,
2013-07-12 10:32:00,82.5,65.2,29.63,SW,236,1.0,4.0,56,0.00,,,0.00,737,WeatherCatV1.02B3,2013-07-12 17:32:00,
2013-07-12 10:37:00,83.4,65.0,29.63,ENE,61,0.0,4.0,54,0.00,,,0.00,747,WeatherCatV1.02B3,2013-07-12 17:37:00,
2013-07-12 10:42:00,83.2,64.8,29.63,NNE,32,2.0,2.0,54,0.00,,,0.00,752,WeatherCatV1.02B3,2013-07-12 17:42:00,
2013-07-12 10:47:00,83.0,64.6,29.63,West,279,1.0,4.0,54,0.00,,,0.00,772,WeatherCatV1.02B3,2013-07-12 17:47:00,
2013-07-12 10:52:00,83.1,64.2,29.63,WSW,258,1.0,4.0,53,0.00,,,0.00,782,WeatherCatV1.02B3,2013-07-12 17:52:00,
2013-07-12 10:57:00,83.2,64.3,29.63,West,271,1.0,2.0,53,0.00,,,0.00,793,WeatherCatV1.02B3,2013-07-12 17:57:00,
2013-07-12 11:02:00,82.7,64.3,29.63,ESE,105,0.0,4.0,54,0.00,,,0.00,803,WeatherCatV1.02B3,2013-07-12 18:02:00,
2013-07-12 11:07:00,83.3,64.9,29.63,NW,321,1.0,2.0,54,0.00,,,0.00,812,WeatherCatV1.02B3,2013-07-12 18:07:00,
2013-07-12 11:12:00,83.6,64.6,29.63,NE,56,1.0,5.0,53,0.00,,,0.00,816,WeatherCatV1.02B3,2013-07-12 18:12:00,
2013-07-12 11:17:00,83.2,64.3,29.63,SSE,155,2.0,3.0,53,0.00,,,0.00,824,WeatherCatV1.02B3,2013-07-12 18:17:00,
2013-07-12 11:22:00,82.3,64.0,29.63,North,5,3.0,4.0,54,0.00,,,0.00,831,WeatherCatV1.02B3,2013-07-12 18:22:00,
2013-07-12 11:27:00,81.1,63.4,29.63,WSW,244,0.0,7.0,55,0.00,,,0.00,840,WeatherCatV1.02B3,2013-07-12 18:27:00,
2013-07-12 11:32:00,81.2,65.0,29.63,ESE,109,4.0,5.0,58,0.00,,,0.00,849,WeatherCatV1.02B3,2013-07-12 18:32:00,
2013-07-12 11:37:00,80.2,63.6,29.63,NE,38,2.0,7.0,57,0.00,,,0.00,853,WeatherCatV1.02B3,2013-07-12 18:37:00,
2013-07-12 11:42:00,80.0,64.4,29.63,ENE,63,3.0,5.0,59,0.00,,,0.00,863,WeatherCatV1.02B3,2013-07-12 18:42:00,
2013-07-12 11:47:00,80.3,64.2,29.63,WNW,292,3.0,4.0,58,0.00,,,0.00,867,WeatherCatV1.02B3,2013-07-12 18:47:00,
2013-07-12 11:52:00,79.9,64.3,29.63,NNW,327,4.0,5.0,59,0.00,,,0.00,872,WeatherCatV1.02B3,2013-07-12 18:52:00,
2013-07-12 11:57:00,80.5,64.3,29.63,ENE,62,4.0,6.0,58,0.00,,,0.00,886,WeatherCatV1.02B3,2013-07-12 18:57:00,
2013-07-12 12:02:00,80.7,63.5,29.63,SW,220,2.0,7.0,56,0.00,,,0.00,888,WeatherCatV1.02B3,2013-07-12 19:02:00,
2013-07-12 12:07:00,81.1,64.4,29.63,WNW,295,2.0,4.0,57,0.00,,,0.00,898,WeatherCatV1.02B3,2013-07-12 19:07:00,
2013-07-12 12:12:00,81.6,64.4,29.63,West,260,5.0,9.0,56,0.00,,,0.00,911,WeatherCatV1.02B3,2013-07-12 19:12:00,
2013-07-12 12:17:00,81.4,63.7,29.63,West,266,7.0,11.0,55,0.00,,,0.00,911,WeatherCatV1.02B3,2013-07-12 19:17:00,
2013-07-12 12:22:00,81.1,63.4,29.63,West,259,3.0,6.0,55,0.00,,,0.00,916,WeatherCatV1.02B3,2013-07-12 19:22:00,
2013-07-12 12:27:00,80.6,62.4,29.63,West,262,6.0,12.0,54,0.00,,,0.00,921,WeatherCatV1.02B3,2013-07-12 19:27:00,
2013-07-12 12:32:00,80.9,61.6,29.63,West,263,4.0,8.0,52,0.00,,,0.00,928,WeatherCatV1.02B3,2013-07-12 19:32:00,
2013-07-12 12:37:00,80.6,61.9,29.63,WSW,254,6.0,11.0,53,0.00,,,0.00,912,WeatherCatV1.02B3,2013-07-12 19:37:00,
2013-07-12 12:42:00,79.3,60.7,29.63,West,273,6.0,14.0,53,0.00,,,0.00,773,WeatherCatV1.02B3,2013-07-12 19:42:00,
2013-07-12 12:47:00,79.8,61.1,29.63,WNW,298,7.0,9.0,53,0.00,,,0.00,919,WeatherCatV1.02B3,2013-07-12 19:47:00,
2013-07-12 12:52:00,80.9,60.5,29.63,West,263,5.0,9.0,50,0.00,,,0.00,930,WeatherCatV1.02B3,2013-07-12 19:52:00,
2013-07-12 12:57:00,81.0,61.1,29.63,West,267,8.0,11.0,51,0.00,,,0.00,923,WeatherCatV1.02B3,2013-07-12 19:57:00,
2013-07-12 13:02:00,81.4,60.9,29.63,West,259,7.0,10.0,50,0.00,,,0.00,918,WeatherCatV1.02B3,2013-07-12 20:02:00,
2013-07-12 13:07:00,81.5,61.0,29.63,WSW,248,4.0,9.0,50,0.00,,,0.00,912,WeatherCatV1.02B3,2013-07-12 20:07:00,
2013-07-12 13:12:00,82.1,60.4,29.63,West,261,2.0,8.0,48,0.00,,,0.00,916,WeatherCatV1.02B3,2013-07-12 20:12:00,
2013-07-12 13:17:00,81.9,60.3,29.63,WNW,293,7.0,8.0,48,0.00,,,0.00,919,WeatherCatV1.02B3,2013-07-12 20:17:00,
2013-07-12 13:22:00,81.9,59.7,29.63,WNW,286,3.0,8.0,47,0.00,,,0.00,912,WeatherCatV1.02B3,2013-07-12 20:22:00,
2013-07-12 13:27:00,82.2,59.9,29.63,WNW,291,6.0,9.0,47,0.00,,,0.00,909,WeatherCatV1.02B3,2013-07-12 20:27:00,
2013-07-12 13:32:00,82.1,61.0,29.63,WNW,287,7.0,11.0,49,0.00,,,0.00,911,WeatherCatV1.02B3,2013-07-12 20:32:00,
2013-07-12 13:37:00,82.3,60.6,29.63,WSW,253,4.0,9.0,48,0.00,,,0.00,902,WeatherCatV1.02B3,2013-07-12 20:37:00,
2013-07-12 13:42:00,82.4,60.1,29.63,WNW,286,5.0,9.0,47,0.00,,,0.00,907,WeatherCatV1.02B3,2013-07-12 20:42:00,
2013-07-12 13:47:00,82.8,60.5,29.63,West,275,8.0,8.0,47,0.00,,,0.00,904,WeatherCatV1.02B3,2013-07-12 20:47:00,
2013-07-12 13:52:00,82.8,61.1,29.63,West,276,8.0,9.0,48,0.00,,,0.00,902,WeatherCatV1.02B3,2013-07-12 20:52:00,
2013-07-12 13:57:00,83.3,60.9,29.63,West,275,4.0,8.0,47,0.00,,,0.00,900,WeatherCatV1.02B3,2013-07-12 20:57:00,
2013-07-12 14:02:00,83.5,59.9,29.63,West,274,6.0,9.0,45,0.00,,,0.00,902,WeatherCatV1.02B3,2013-07-12 21:02:00,
2013-07-12 14:07:00,83.8,60.2,29.63,NNW,333,7.0,7.0,45,0.00,,,0.00,886,WeatherCatV1.02B3,2013-07-12 21:07:00,
2013-07-12 14:12:00,83.8,60.2,29.63,West,268,10.0,10.0,45,0.00,,,0.00,884,WeatherCatV1.02B3,2013-07-12 21:12:00,
2013-07-12 14:17:00,83.3,59.7,29.63,NW,324,3.0,8.0,45,0.00,,,0.00,877,WeatherCatV1.02B3,2013-07-12 21:17:00,
2013-07-12 14:22:00,83.5,59.9,29.63,WNW,286,4.0,7.0,45,0.00,,,0.00,874,WeatherCatV1.02B3,2013-07-12 21:22:00,
2013-07-12 14:27:00,84.1,59.8,29.63,NW,306,2.0,6.0,44,0.00,,,0.00,867,WeatherCatV1.02B3,2013-07-12 21:27:00,
2013-07-12 14:32:00,83.2,59.0,29.63,WNW,284,5.0,9.0,44,0.00,,,0.00,854,WeatherCatV1.02B3,2013-07-12 21:32:00,
2013-07-12 14:37:00,84.0,59.1,29.63,WNW,290,8.0,9.0,43,0.00,,,0.00,849,WeatherCatV1.02B3,2013-07-12 21:37:00,
2013-07-12 14:42:00,84.7,59.7,29.63,NW,316,5.0,7.0,43,0.00,,,0.00,833,WeatherCatV1.02B3,2013-07-12 21:42:00,
2013-07-12 14:47:00,85.8,58.7,29.63,WSW,257,4.0,5.0,40,0.00,,,0.00,849,WeatherCatV1.02B3,2013-07-12 21:47:00,
2013-07-12 14:52:00,86.1,58.9,29.63,WSW,254,3.0,9.0,40,0.00,,,0.00,842,WeatherCatV1.02B3,2013-07-12 21:52:00,
2013-07-12 14:57:00,85.7,59.3,29.63,SE,126,2.0,4.0,41,0.00,,,0.00,826,WeatherCatV1.02B3,2013-07-12 21:57:00,
2013-07-12 15:02:00,85.8,57.9,29.63,ENE,68,3.0,7.0,39,0.00,,,0.00,812,WeatherCatV1.02B3,2013-07-12 22:02:00,
2013-07-12 15:07:00,87.4,58.6,29.63,WNW,288,0.0,6.0,38,0.00,,,0.00,812,WeatherCatV1.02B3,2013-07-12 22:07:00,
2013-07-12 15:12:00,86.3,59.1,29.63,NNE,24,1.0,4.0,40,0.00,,,0.00,800,WeatherCatV1.02B3,2013-07-12 22:12:00,
2013-07-12 15:17:00,87.8,59.0,29.63,ENE,75,5.0,7.0,38,0.00,,,0.00,788,WeatherCatV1.02B3,2013-07-12 22:17:00,
2013-07-12 15:22:00,87.6,58.1,29.63,ESE,115,0.0,5.0,37,0.00,,,0.00,780,WeatherCatV1.02B3,2013-07-12 22:22:00,
2013-07-12 15:27:00,88.4,57.2,29.63,WNW,294,3.0,3.0,35,0.00,,,0.00,773,WeatherCatV1.02B3,2013-07-12 22:27:00,
2013-07-12 15:32:00,87.3,57.0,29.63,East,98,2.0,7.0,36,0.00,,,0.00,772,WeatherCatV1.02B3,2013-07-12 22:32:00,
2013-07-12 15:37:00,86.9,56.7,29.63,ENE,62,3.0,6.0,36,0.00,,,0.00,763,WeatherCatV1.02B3,2013-07-12 22:37:00,
2013-07-12 15:42:00,86.6,56.4,29.63,ENE,73,3.0,4.0,36,0.00,,,0.00,772,WeatherCatV1.02B3,2013-07-12 22:42:00,
2013-07-12 15:47:00,86.6,56.4,29.63,ENE,63,2.0,5.0,36,0.00,,,0.00,751,WeatherCatV1.02B3,2013-07-12 22:47:00,
2013-07-12 15:52:00,86.9,55.1,29.63,ENE,74,1.0,9.0,34,0.00,,,0.00,675,WeatherCatV1.02B3,2013-07-12 22:52:00,
2013-07-12 15:57:00,87.5,55.6,29.63,North,9,0.0,3.0,34,0.00,,,0.00,728,WeatherCatV1.02B3,2013-07-12 22:57:00,
2013-07-12 16:02:00,86.9,55.9,29.63,North,355,1.0,2.0,35,0.00,,,0.00,708,WeatherCatV1.02B3,2013-07-12 23:02:00,
2013-07-12 16:07:00,86.7,54.1,29.63,East,90,1.0,2.0,33,0.00,,,0.00,635,WeatherCatV1.02B3,2013-07-12 23:07:00,
2013-07-12 16:12:00,86.5,56.3,29.63,WSW,258,1.0,3.0,36,0.00,,,0.00,701,WeatherCatV1.02B3,2013-07-12 23:12:00,
2013-07-12 16:17:00,85.7,55.6,29.63,ENE,76,4.0,6.0,36,0.00,,,0.00,680,WeatherCatV1.02B3,2013-07-12 23:17:00,
2013-07-12 16:22:00,85.2,55.2,29.63,NE,46,2.0,5.0,36,0.00,,,0.00,650,WeatherCatV1.02B3,2013-07-12 23:22:00,
2013-07-12 16:27:00,85.3,56.0,29.63,East,82,3.0,5.0,37,0.00,,,0.00,640,WeatherCatV1.02B3,2013-07-12 23:27:00,
2013-07-12 16:32:00,85.4,56.1,29.63,NNE,31,3.0,3.0,37,0.00,,,0.00,613,WeatherCatV1.02B3,2013-07-12 23:32:00,
2013-07-12 16:37:00,86.2,56.8,29.63,ENE,74,4.0,7.0,37,0.00,,,0.00,594,WeatherCatV1.02B3,2013-07-12 23:37:00,
2013-07-12 16:42:00,85.2,56.7,29.63,ENE,74,4.0,4.0,38,0.00,,,0.00,585,WeatherCatV1.02B3,2013-07-12 23:42:00,
2013-07-12 16:47:00,85.0,57.2,29.63,WNW,285,2.0,3.0,39,0.00,,,0.00,578,WeatherCatV1.02B3,2013-07-12 23:47:00,
2013-07-12 16:52:00,86.6,56.4,29.63,West,265,0.0,3.0,36,0.00,,,0.00,550,WeatherCatV1.02B3,2013-07-12 23:52:00,
2013-07-12 16:57:00,87.0,57.5,29.63,North,355,0.0,3.0,37,0.00,,,0.00,536,WeatherCatV1.02B3,2013-07-12 23:57:00,
2013-07-12 17:02:00,86.2,56.8,29.63,East,86,1.0,3.0,37,0.00,,,0.00,517,WeatherCatV1.02B3,2013-07-13 00:02:00,
2013-07-12 17:07:00,85.7,56.4,29.63,ENE,78,2.0,3.0,37,0.00,,,0.00,501,WeatherCatV1.02B3,2013-07-13 00:07:00,
2013-07-12 17:12:00,85.2,56.0,29.63,East,101,2.0,5.0,37,0.00,,,0.00,485,WeatherCatV1.02B3,2013-07-13 00:12:00,
2013-07-12 17:17:00,85.1,55.9,29.63,East,93,1.0,7.0,37,0.00,,,0.00,469,WeatherCatV1.02B3,2013-07-13 00:17:00,
2013-07-12 17:22:00,85.0,56.5,29.63,North,5,1.0,4.0,38,0.00,,,0.00,454,WeatherCatV1.02B3,2013-07-13 00:22:00,
2013-07-12 17:27:00,84.5,56.1,29.63,East,90,2.0,3.0,38,0.00,,,0.00,441,WeatherCatV1.02B3,2013-07-13 00:27:00,
2013-07-12 17:32:00,84.7,56.2,29.63,NE,55,1.0,2.0,38,0.00,,,0.00,425,WeatherCatV1.02B3,2013-07-13 00:32:00,
2013-07-12 17:38:00,84.1,54.2,29.63,NW,309,2.0,4.0,36,0.00,,,0.00,408,WeatherCatV1.02B3,2013-07-13 00:38:00,
2013-07-12 17:43:00,83.6,53.8,29.63,NNW,337,1.0,3.0,36,0.00,,,0.00,394,WeatherCatV1.02B3,2013-07-13 00:43:00,
2013-07-12 17:48:00,83.4,53.6,29.63,NE,51,0.0,5.0,36,0.00,,,0.00,378,WeatherCatV1.02B3,2013-07-13 00:48:00,
2013-07-12 17:53:00,83.6,53.0,29.63,NNW,335,1.0,4.0,35,0.00,,,0.00,362,WeatherCatV1.02B3,2013-07-13 00:53:00,
2013-07-12 17:58:00,83.3,53.5,29.63,NE,43,1.0,4.0,36,0.00,,,0.00,265,WeatherCatV1.02B3,2013-07-13 00:58:00,
2013-07-12 18:03:00,83.1,53.3,29.63,NNW,348,2.0,2.0,36,0.00,,,0.00,332,WeatherCatV1.02B3,2013-07-13 01:03:00,
2013-07-12 18:08:00,83.3,51.2,29.63,WNW,302,2.0,7.0,33,0.00,,,0.00,318,WeatherCatV1.02B3,2013-07-13 01:08:00,
2013-07-12 18:13:00,83.3,52.0,29.63,West,261,0.0,4.0,34,0.00,,,0.00,302,WeatherCatV1.02B3,2013-07-13 01:13:00,
2013-07-12 18:18:00,83.2,51.1,29.63,WNW,295,1.0,3.0,33,0.00,,,0.00,285,WeatherCatV1.02B3,2013-07-13 01:18:00,
2013-07-12 18:23:00,83.6,52.2,29.63,West,272,6.0,6.0,34,0.00,,,0.00,267,WeatherCatV1.02B3,2013-07-13 01:23:00,
2013-07-12 18:28:00,82.6,54.4,29.63,WSW,238,3.0,6.0,38,0.00,,,0.00,251,WeatherCatV1.02B3,2013-07-13 01:28:00,
2013-07-12 18:33:00,81.6,54.9,29.63,West,280,3.0,7.0,40,0.00,,,0.00,234,WeatherCatV1.02B3,2013-07-13 01:33:00,
2013-07-12 18:38:00,81.1,55.1,29.63,West,259,4.0,6.0,41,0.00,,,0.00,218,WeatherCatV1.02B3,2013-07-13 01:38:00,
2013-07-12 18:43:00,80.5,55.3,29.63,WSW,249,4.0,5.0,42,0.00,,,0.00,199,WeatherCatV1.02B3,2013-07-13 01:43:00,
2013-07-12 18:48:00,79.8,56.5,29.63,West,274,6.0,6.0,45,0.00,,,0.00,132,WeatherCatV1.02B3,2013-07-13 01:48:00,
2013-07-12 18:53:00,79.3,57.3,29.63,WNW,288,3.0,5.0,47,0.00,,,0.00,148,WeatherCatV1.02B3,2013-07-13 01:53:00,
2013-07-12 18:58:00,78.8,56.8,29.63,West,262,2.0,4.0,47,0.00,,,0.00,139,WeatherCatV1.02B3,2013-07-13 01:58:00,
2013-07-12 19:03:00,78.6,56.7,29.63,West,277,3.0,6.0,47,0.00,,,0.00,123,WeatherCatV1.02B3,2013-07-13 02:03:00,
2013-07-12 19:08:00,78.1,56.8,29.63,WSW,257,4.0,6.0,48,0.00,,,0.00,37,WeatherCatV1.02B3,2013-07-13 02:08:00,
2013-07-12 19:13:00,77.6,56.9,29.63,West,270,1.0,4.0,49,0.00,,,0.00,33,WeatherCatV1.02B3,2013-07-13 02:13:00,
2013-07-12 19:18:00,77.1,57.6,29.63,West,278,3.0,5.0,51,0.00,,,0.00,32,WeatherCatV1.02B3,2013-07-13 02:18:00,
2013-07-12 19:23:00,76.5,58.1,29.63,West,260,2.0,6.0,53,0.00,,,0.00,30,WeatherCatV1.02B3,2013-07-13 02:23:00,
2013-07-12 19:28:00,75.9,58.6,29.63,WSW,254,3.0,3.0,55,0.00,,,0.00,28,WeatherCatV1.02B3,2013-07-13 02:28:00,
2013-07-12 19:33:00,75.5,58.7,29.63,SW,219,1.0,2.0,56,0.00,,,0.00,25,WeatherCatV1.02B3,2013-07-13 02:33:00,
2013-07-12 19:38:00,74.8,59.0,29.63,East,98,0.0,2.0,58,0.00,,,0.00,23,WeatherCatV1.02B3,2013-07-13 02:38:00,
2013-07-12 19:43:00,73.8,59.0,29.63,East,98,1.0,1.0,60,0.00,,,0.00,21,WeatherCatV1.02B3,2013-07-13 02:43:00,
2013-07-12 19:48:00,73.0,59.2,29.63,NE,43,0.0,1.0,62,0.00,,,0.00,18,WeatherCatV1.02B3,2013-07-13 02:48:00,
2013-07-12 19:53:00,72.4,59.1,29.63,NE,43,1.0,1.0,63,0.00,,,0.00,16,WeatherCatV1.02B3,2013-07-13 02:53:00,
2013-07-12 19:58:00,71.9,59.0,29.63,NE,43,0.0,0.0,64,0.00,,,0.00,12,WeatherCatV1.02B3,2013-07-13 02:58:00,
2013-07-12 20:03:00,71.5,59.1,29.63,NE,46,1.0,1.0,65,0.00,,,0.00,11,WeatherCatV1.02B3,2013-07-13 03:03:00,
2013-07-12 20:08:00,71.0,59.1,29.63,NE,46,0.0,2.0,66,0.00,,,0.00,7,WeatherCatV1.02B3,2013-07-13 03:08:00,
2013-07-12 20:13:00,70.4,58.9,29.63,NE,46,0.0,1.0,67,0.00,,,0.00,5,WeatherCatV1.02B3,2013-07-13 03:13:00,
2013-07-12 20:18:00,69.9,58.8,29.63,NE,46,0.0,0.0,68,0.00,,,0.00,0,WeatherCatV1.02B3,2013-07-13 03:18:00,
2013-07-12 20:23:00,69.5,58.9,29.63,SSE,159,0.0,1.0,69,0.00,,,0.00,0,WeatherCatV1.02B3,2013-07-13 03:23:00,
2013-07-12 20:28:00,68.9,58.7,29.63,ESE,109,0.0,0.0,70,0.00,,,0.00,0,WeatherCatV1.02B3,2013-07-13 03:28:00,
2013-07-12 20:33:00,68.5,58.7,29.63,ESE,105,0.0,1.0,71,0.00,,,0.00,0,WeatherCatV1.02B3,2013-07-13 03:33:00,
2013-07-12 20:38:00,68.0,58.6,29.63,ESE,106,0.0,1.0,72,0.00,,,0.00,0,WeatherCatV1.02B3,2013-07-13 03:38:00,
2013-07-12 20:43:00,67.8,58.8,29.63,WSW,248,0.0,2.0,73,0.00,,,0.00,0,WeatherCatV1.02B3,2013-07-13 03:43:00,
2013-07-12 20:48:00,67.4,58.8,29.63,West,262,0.0,0.0,74,0.00,,,0.00,0,WeatherCatV1.02B3,2013-07-13 03:48:00,
2013-07-12 20:53:00,67.2,58.6,29.63,SW,227,0.0,1.0,74,0.00,,,0.00,0,WeatherCatV1.02B3,2013-07-13 03:53:00,
2013-07-12 20:58:00,66.8,58.6,29.63,SW,227,0.0,1.0,75,0.00,,,0.00,0,WeatherCatV1.02B3,2013-07-13 03:58:00,
2013-07-12 21:01:00,66.7,58.5,29.63,SW,227,0.0,1.0,75,0.00,,,0.00,0,WeatherCatV1.02B3,2013-07-13 04:01:00,
2013-07-12 21:06:00,66.2,58.4,29.63,West,271,1.0,1.0,76,0.00,,,0.00,0,WeatherCatV1.02B3,2013-07-13 04:06:00,
2013-07-12 21:11:00,65.7,58.3,29.63,West,268,1.0,1.0,77,0.00,,,0.00,0,WeatherCatV1.02B3,2013-07-13 04:11:00,
2013-07-12 21:16:00,65.5,58.5,29.63,West,264,0.0,1.0,78,0.00,,,0.00,0,WeatherCatV1.02B3,2013-07-13 04:16:00,
2013-07-12 21:21:00,65.3,58.3,29.63,West,264,0.0,0.0,78,0.00,,,0.00,0,WeatherCatV1.02B3,2013-07-13 04:21:00,
2013-07-12 21:26:00,65.0,58.3,29.63,West,261,0.0,1.0,79,0.00,,,0.00,0,WeatherCatV1.02B3,2013-07-13 04:26:00,
2013-07-12 21:31:00,64.7,58.0,29.63,West,261,0.0,0.0,79,0.00,,,0.00,0,WeatherCatV1.02B3,2013-07-13 04:31:00,
2013-07-12 21:36:00,64.5,58.2,29.63,West,259,0.0,0.0,80,0.00,,,0.00,0,WeatherCatV1.02B3,2013-07-13 04:36:00,
2013-07-12 21:41:00,64.2,57.5,29.63,West,259,0.0,0.0,79,0.00,,,0.00,0,WeatherCatV1.02B3,2013-07-13 04:41:00,
2013-07-12 21:46:00,63.9,57.6,29.63,West,259,0.0,0.0,80,0.00,,,0.00,0,WeatherCatV1.02B3,2013-07-13 04:46:00,
2013-07-12 21:51:00,63.6,57.7,29.63,West,259,0.0,0.0,81,0.00,,,0.00,0,WeatherCatV1.02B3,2013-07-13 04:51:00,
2013-07-12 21:56:00,63.1,57.5,29.63,West,259,0.0,0.0,82,0.00,,,0.00,0,WeatherCatV1.02B3,2013-07-13 04:56:00,
2013-07-12 22:01:00,63.1,57.8,29.63,West,259,0.0,0.0,83,0.00,,,0.00,0,WeatherCatV1.02B3,2013-07-13 05:01:00,
2013-07-12 22:06:00,62.9,58.0,29.63,West,259,0.0,0.0,84,0.00,,,0.00,0,WeatherCatV1.02B3,2013-07-13 05:06:00,
2013-07-12 22:11:00,62.7,57.8,29.63,West,259,0.0,0.0,84,0.00,,,0.00,0,WeatherCatV1.02B3,2013-07-13 05:11:00,
2013-07-12 22:16:00,62.5,57.9,29.63,West,259,0.0,0.0,85,0.00,,,0.00,0,WeatherCatV1.02B3,2013-07-13 05:16:00,
2013-07-12 22:21:00,62.3,57.7,29.63,West,259,0.0,0.0,85,0.00,,,0.00,0,WeatherCatV1.02B3,2013-07-13 05:21:00,
2013-07-12 22:26:00,62.1,57.5,29.63,West,259,0.0,0.0,85,0.00,,,0.00,0,WeatherCatV1.02B3,2013-07-13 05:26:00,
2013-07-12 22:31:00,61.8,57.2,29.63,West,259,0.0,0.0,85,0.00,,,0.00,0,WeatherCatV1.02B3,2013-07-13 05:31:00,
2013-07-12 22:36:00,61.7,57.5,29.63,West,259,0.0,0.0,86,0.00,,,0.00,0,WeatherCatV1.02B3,2013-07-13 05:36:00,
2013-07-12 22:41:00,61.6,57.0,29.63,West,259,0.0,0.0,85,0.00,,,0.00,0,WeatherCatV1.02B3,2013-07-13 05:41:00,
2013-07-12 22:46:00,61.0,56.5,29.63,West,259,0.0,0.0,85,0.00,,,0.00,0,WeatherCatV1.02B3,2013-07-13 05:46:00,
2013-07-12 22:51:00,61.3,57.1,29.63,West,259,0.0,0.0,86,0.00,,,0.00,0,WeatherCatV1.02B3,2013-07-13 05:51:00,
2013-07-12 22:56:00,61.5,56.9,29.63,West,259,0.0,0.0,85,0.00,,,0.00,0,WeatherCatV1.02B3,2013-07-13 05:56:00,
2013-07-12 23:01:00,60.7,56.2,29.63,West,259,0.0,0.0,85,0.00,,,0.00,0,WeatherCatV1.02B3,2013-07-13 06:01:00,
2013-07-12 23:06:00,60.7,56.8,29.63,West,259,0.0,0.0,87,0.00,,,0.00,0,WeatherCatV1.02B3,2013-07-13 06:06:00,
2013-07-12 23:11:00,60.3,56.1,29.63,West,259,0.0,0.0,86,0.00,,,0.00,0,WeatherCatV1.02B3,2013-07-13 06:11:00,
2013-07-12 23:16:00,60.3,56.4,29.63,West,259,0.0,0.0,87,0.00,,,0.00,0,WeatherCatV1.02B3,2013-07-13 06:16:00,
2013-07-12 23:21:00,60.7,56.8,29.63,West,259,0.0,0.0,87,0.00,,,0.00,0,WeatherCatV1.02B3,2013-07-13 06:21:00,
2013-07-12 23:26:00,60.2,56.0,29.63,West,259,0.0,0.0,86,0.00,,,0.00,0,WeatherCatV1.02B3,2013-07-13 06:26:00,
2013-07-12 23:31:00,60.2,56.3,29.63,West,259,0.0,0.0,87,0.00,,,0.00,0,WeatherCatV1.02B3,2013-07-13 06:31:00,
2013-07-12 23:36:00,59.8,55.6,29.63,West,259,0.0,0.0,86,0.00,,,0.00,0,WeatherCatV1.02B3,2013-07-13 06:36:00,
2013-07-12 23:41:00,59.8,55.9,29.63,West,259,0.0,0.0,87,0.00,,,0.00,0,WeatherCatV1.02B3,2013-07-13 06:41:00,
2013-07-12 23:46:00,59.8,55.9,29.63,West,259,0.0,0.0,87,0.00,,,0.00,0,WeatherCatV1.02B3,2013-07-13 06:46:00,
2013-07-12 23:51:00,59.9,56.3,29.63,West,259,0.0,0.0,88,0.00,,,0.00,0,WeatherCatV1.02B3,2013-07-13 06:51:00,
2013-07-12 23:56:00,59.8,55.9,29.63,West,259,0.0,0.0,87,0.00,,,0.00,0,WeatherCatV1.02B3,2013-07-13 06:56:00,